x

Canaveral East - 120nm East Of Cape Canaveral (41010) Wave Buoy

7:50pm - Tue 27th Jan 2015 All times are EST. -5 hours from GMT.

  • Sig Wave height 8.9ft
  • Swell Direction
  • Peak Period 8s
  • Average Period 6s
  • Wind
    20mph, 27mph gusts
  • Sea Temp 75°f
  • Air Temp 65°f
  • Sea Pressure 1013.1mb
  • Canaveral East - 120nm East Of Cape Canaveral
  • Canaveral East - 120nm East Of Cape Canaveral

More Historic Weather Station data

Upgrade to MSW Pro to gain access to the past 30 days of data for over 8000 Wavebouys and Weather Stations around the globe.

Join Pro

Comparision Forecast

View Surf forecast
   
Tue 01/27 7:50pm 9ft 8s 6s 20 27 mph 1013.1mb 75f 65f
7:20pm  -   -   -  22 29 mph 1013.1mb 75f 65f
6:50pm 9ft 9s 6s 27 31 mph 1012.9mb 75f 65f
6:20pm  -   -   -  25 34 mph 1012.8mb 75f 64f
5:50pm 11ft 8s 6s 25 31 mph 1012.7mb 75f 63f
5:20pm  -   -   -  27 34 mph 1012.3mb 75f 63f
4:50pm 10.5ft 8s 6s 27 34 mph 1012mb 75f 62f
4:20pm  -   -   -  31 38 mph 1011.5mb 76f 62f
3:50pm 11ft 9s 7s 31 38 mph 1011.2mb 76f 62f
3:20pm  -   -   -  29 36 mph 1011.1mb 76f 62f
2:50pm 11ft 9s 7s 29 36 mph 1011.1mb 76f 61f
2:20pm  -   -   -  29 36 mph 1011.3mb 76f 61f
1:50pm 12ft 9s 7s 31 38 mph 1011.4mb 76f 61f
1:20pm  -   -   -  29 36 mph 1011.7mb 76f 61f
12:50pm 11.5ft 9s 7s 29 36 mph 1011.9mb 76f 61f
12:20pm  -   -   -  29 36 mph 1012.4mb 76f 61f
11:50am 11.5ft 9s 7s 29 38 mph 1012.8mb 76f 61f
11:20am  -   -   -  29 38 mph 1013.1mb 76f 62f
10:50am 11ft 10s 7s 29 38 mph 1013.2mb 76f 62f
10:20am  -   -   -  29 36 mph 1013.1mb 76f 61f
9:50am 12.5ft 9s 7s 29 36 mph 1013.2mb 76f 62f
9:20am  -   -   -  27 34 mph 1012.9mb 76f 61f
8:50am 12ft 9s 7s 27 36 mph 1012.7mb 76f 61f
8:20am  -   -   -  27 38 mph 1012.6mb 76f 62f
7:50am 12ft 8s 7s 29 38 mph 1012.3mb 76f 62f
7:20am  -   -   -  29 36 mph 1012.2mb 76f 62f
6:50am 12ft 10s 7s 29 40 mph 1011.8mb 76f 61f
6:20am  -   -   -  29 36 mph 1011.1mb 76f 62f
5:50am 12.5ft 9s 7s 31 38 mph 1010.4mb 76f 61f
5:20am  -   -   -  31 38 mph 1010mb 76f 61f
4:50am 13ft 9s 7s 29 40 mph 1009.7mb 76f 62f
4:20am  -   -   -  31 38 mph 1009.5mb 76f 62f
3:50am 13ft 9s 7s 29 38 mph 1009.4mb 76f 62f
3:20am  -   -   -  29 36 mph 1009.5mb 76f 62f
2:50am 13ft 9s 7s 31 38 mph 1009.5mb 76f 62f
2:20am  -   -   -  31 40 mph 1009.3mb 76f 62f
1:50am 10.5ft 8s 6s 29 36 mph 1009.3mb 76f 63f
1:20am  -   -   -  31 38 mph 1009.3mb 76f 63f
12:50am 11ft 9s 7s 29 40 mph 1009.1mb 76f 64f
12:20am  -   -   -  31 38 mph 1009.1mb 76f 65f
Mon 01/26 11:50pm 12ft 9s 7s 29 36 mph 1009.1mb 76f 65f
11:20pm  -   -   -  27 34 mph 1009.3mb 76f 65f
10:50pm 11.5ft 9s 6s 27 34 mph 1009.2mb 76f 65f
10:20pm  -   -   -  27 36 mph 1009.4mb 76f 65f
9:50pm 12.5ft 8s 7s 27 34 mph 1009.2mb 76f 65f
9:20pm  -   -   -  29 34 mph 1009.3mb 76f 66f
8:50pm 12ft 8s 7s 27 36 mph 1009.3mb 76f 66f
8:20pm  -   -   -  29 36 mph 1008.9mb 76f 66f
7:50pm 13ft 9s 7s 29 36 mph 1008.9mb 76f 66f
7:20pm  -   -   -  29 36 mph 1008.8mb 76f 67f
6:50pm 12.5ft 8s 7s 29 36 mph 1008.8mb 76f 66f
6:20pm  -   -   -  31 40 mph 1008.3mb 76f 67f
5:50pm 13ft 8s 7s 31 38 mph 1007.9mb 76f 67f
5:20pm  -   -   -  29 40 mph 1007.5mb 76f 66f
4:50pm 13ft 8s 7s 31 38 mph 1007.3mb 76f 66f
4:20pm  -   -   -  34 40 mph 1006.8mb 76f 66f
3:50pm 12.5ft 7s 6s 34 43 mph 1006.7mb 76f 66f
3:20pm  -   -   -  36 45 mph 1006.6mb 76f 66f
2:50pm 12ft 8s 6s 34 43 mph 1006.4mb 76f 66f
2:20pm  -   -   -  34 40 mph 1006.3mb 76f 66f
1:50pm 11ft 8s 6s 34 43 mph 1006.1mb 76f 66f
1:20pm  -   -   -  34 40 mph 1006.2mb 76f 66f
12:50pm 11ft 8s 6s 34 43 mph 1006.5mb 76f 67f
12:20pm  -   -   -  36 43 mph 1006.6mb 76f 67f
11:50am 10.5ft 7s 6s 38 45 mph 1006.9mb 76f 67f
11:20am  -   -   -  38 47 mph 1007.1mb 76f 68f
10:50am 7.5ft 6s 5s 36 45 mph 1007.1mb 75f 69f
10:20am  -   -   -  36 43 mph 1007.6mb 75f 67f
9:50am 6.5ft 6s 5s 29 34 mph 1008.2mb 75f 65f
9:20am  -   -   -  36 43 mph 1008mb 75f 65f
8:50am 5ft 6s 5s 27 34 mph 1007.9mb 76f 69f
8:20am  -   -   -  27 34 mph 1008.5mb 76f 69f
7:50am 4.5ft 6s 5s 25 31 mph 1009mb 76f 69f
7:20am  -   -   -  20 25 mph 1009.5mb 76f 68f
6:50am 4.5ft 6s 5s 18 22 mph 1009.5mb 76f 68f
6:20am  -   -   -  16 20 mph 1009.9mb 76f 68f
5:50am 4.5ft 5s 5s 18 22 mph 1010.8mb 76f 67f
5:20am  -   -   -  18 22 mph 1011mb 76f 67f
4:50am 4.5ft 5s 5s 20 27 mph 1011.2mb 76f 67f
4:20am  -   -   -  20 25 mph 1011.7mb 76f 67f
3:50am 4ft 10s 5s 20 27 mph 1011.7mb 76f 67f
3:20am  -   -   -  20 25 mph 1011.6mb 76f 67f
2:50am 4ft 5s 5s 20 25 mph 1011.8mb 76f 67f
2:20am  -   -   -  18 22 mph 1012.1mb 76f 67f
1:50am 3.5ft 4s 4s 20 25 mph 1012.6mb 76f 67f
1:20am  -   -   -  18 22 mph 1012.9mb 76f 67f
12:50am 3.5ft 6s 4s 18 25 mph 1013.3mb 76f 67f
12:20am  -   -   -  18 25 mph 1013.2mb 75f 67f
Sun 01/25 11:50pm 3.5ft 7s 4s 18 20 mph 1013.6mb 75f 67f
11:20pm  -   -   -  18 22 mph 1014.2mb 75f 67f
10:50pm 3.5ft 9s 5s 18 22 mph 1014.8mb 75f 67f
10:20pm  -   -   -  16 20 mph 1014.7mb 75f 67f
9:50pm 3.5ft 7s 5s 16 20 mph 1015.4mb 75f 68f
9:20pm  -   -   -  16 20 mph 1015mb 75f 67f
8:50pm 3.5ft 6s 5s 11 16 mph 1015.1mb 75f 67f
8:20pm  -   -   -  13 16 mph 1015.4mb 75f 67f
7:50pm 3.5ft 7s 6s 9 13 mph 1015.6mb 75f 67f
7:20pm  -   -   -  9 11 mph 1015.5mb 75f 67f
6:50pm 4ft 6s 6s 9 13 mph 1014.9mb 75f 67f
6:20pm  -   -   -  7 11 mph 1014.8mb 76f 66f
5:50pm 4ft 6s 5s 7 9 mph 1014.8mb 76f 66f
5:20pm  -   -   -  4 9 mph 1015.1mb 76f 66f
4:50pm 4.5ft 6s 6s 7 11 mph 1015.3mb 76f 66f
4:20pm  -   -   -  9 11 mph 1015.1mb 76f 66f
3:50pm 4ft 7s 5s 7 11 mph 1015mb 76f 66f
3:20pm  -   -   -  7 11 mph 1014.9mb 76f 66f
2:50pm 4.5ft 7s 6s 7 9 mph 1015.1mb 76f 65f
2:20pm  -   -   -  7 9 mph 1015.1mb 76f 66f
1:50pm 5ft 7s 6s 7 9 mph 1015.3mb 76f 66f
1:20pm  -   -   -  4 11 mph 1015.8mb 76f 66f
12:50pm 5ft 7s 6s 7 9 mph 1016mb 76f 65f
12:20pm  -   -   -  4 9 mph 1016.5mb 76f 65f
11:50am 5ft 8s 6s 4 9 mph 1016.9mb 76f 65f
11:20am  -   -   -  7 11 mph 1017.2mb 76f 65f
10:50am 5ft 8s 6s 4 9 mph 1017.6mb 76f 65f
10:20am  -   -   -  7 11 mph 1017.4mb 76f 65f
9:50am 5.5ft 8s 6s 9 11 mph 1017.3mb 76f 65f
9:20am  -   -   -  11 16 mph 1017.2mb 76f 65f
8:50am 5.5ft 8s 6s 9 13 mph 1017.1mb 76f 65f
8:20am  -   -   -  13 18 mph 1016.7mb 76f 65f
7:50am 6ft 8s 6s 13 20 mph 1016.6mb 76f 65f
7:20am  -   -   -  13 18 mph 1016.3mb 76f 65f
6:50am 6.5ft 8s 6s 11 18 mph 1016.1mb 76f 65f
6:20am  -   -   -  13 18 mph 1015.7mb 76f 64f
5:50am 6.5ft 8s 6s 11 16 mph 1015.3mb 77f 64f
5:20am  -   -   -  13 18 mph 1014.9mb 77f 64f
4:50am 7ft 8s 6s 16 22 mph 1014.6mb 77f 64f
4:20am  -   -   -  16 22 mph 1014.5mb 77f 64f
3:50am 7.5ft 9s 6s 16 20 mph 1014.6mb 77f 64f
3:20am  -   -   -  16 20 mph 1014.6mb 77f 64f
2:50am 8.5ft 8s 6s 13 20 mph 1014.7mb 77f 64f
2:20am  -   -   -  13 18 mph 1014.5mb 76f 64f
1:50am 8.5ft 9s 6s 20 25 mph 1014.4mb 76f 65f
1:20am  -   -   -  18 25 mph 1014.3mb 76f 65f
12:50am 8.5ft 9s 6s 20 25 mph 1014mb 76f 65f
12:20am  -   -   -  20 27 mph 1013.9mb 77f 65f
Sat 01/24 11:50pm 9ft 9s 6s 20 27 mph 1013.9mb 77f 65f
11:20pm  -   -   -  20 25 mph 1013.7mb 77f 66f
10:50pm 9.5ft 8s 6s 22 31 mph 1013.6mb 77f 66f
10:20pm  -   -   -  25 31 mph 1013.4mb 77f 66f
9:50pm 10ft 8s 7s 22 29 mph 1013.1mb 77f 66f
9:20pm  -   -   -  22 27 mph 1013.1mb 77f 66f
8:50pm 10ft 8s 7s 22 29 mph 1012.9mb 77f 67f
8:20pm  -   -   -  25 34 mph 1012.9mb 77f 67f
7:50pm 12ft 8s 7s 25 31 mph 1012.6mb 77f 67f
7:20pm  -   -   -  27 31 mph 1012.2mb 77f 67f
6:50pm 12.5ft 9s 7s 27 31 mph 1011.8mb 77f 67f
6:20pm  -   -   -  27 31 mph 1011.4mb 77f 67f
5:50pm 13ft 9s 7s 29 36 mph 1010.7mb 77f 68f
5:20pm  -   -   -  31 38 mph 1010.1mb 77f 68f
4:50pm 13ft 9s 7s 31 38 mph 1010.1mb 77f 68f
4:20pm  -   -   -  31 38 mph 1009.8mb 77f 68f
3:50pm 12.5ft 8s 7s 31 40 mph 1009.5mb 77f 69f
3:20pm  -   -   -  31 38 mph 1009.2mb 77f 68f
2:50pm 12ft 8s 6s 31 38 mph 1009.1mb 77f 69f
2:20pm  -   -   -  31 38 mph 1009mb 77f 69f
1:50pm 12ft 8s 6s 34 38 mph 1008.5mb 77f 69f
1:20pm  -   -   -  34 40 mph 1008.6mb 77f 69f
12:50pm 12ft 8s 6s 36 45 mph 1008.6mb 77f 70f
12:20pm  -   -   -  36 43 mph 1008.9mb 77f 70f
11:50am 13ft 8s 6s 36 45 mph 1009mb 77f 71f
11:20am  -   -   -  36 43 mph 1009.1mb 77f 70f
10:50am 12ft 8s 6s 36 45 mph 1007.6mb 77f 77f
10:20am  -   -   -  34 40 mph 1007.6mb 77f 76f
9:50am 11ft 8s 6s 31 40 mph 1008.4mb 77f 76f
9:20am  -   -   -  34 40 mph 1008.5mb 77f 76f
8:50am 10ft 7s 6s 31 38 mph 1008.8mb 77f 76f
8:20am  -   -   -  29 36 mph 1009.1mb 77f 76f
7:50am 11ft 7s 6s 34 40 mph 1009.2mb 77f 76f
7:20am  -   -   -  31 38 mph 1009.2mb 77f 76f
6:50am 10.5ft 7s 6s 31 38 mph 1009.2mb 77f 76f
6:20am  -   -   -  31 38 mph 1009.3mb 77f 76f
5:50am 9ft 7s 6s 29 36 mph 1009.4mb 77f 76f
5:20am  -   -   -  31 38 mph 1009.5mb 77f 76f
4:50am 8ft 6s 5s 31 38 mph 1009.4mb 77f 75f
4:20am  -   -   -  31 38 mph 1010.1mb 77f 76f
3:50am 8ft 6s 5s 31 36 mph 1010mb 77f 75f
3:20am  -   -   -  29 34 mph 1010mb 77f 75f
2:50am 7ft 5s 5s 29 34 mph 1011mb 77f 75f
2:20am  -   -   -  29 34 mph 1011.5mb 77f 75f
1:50am 7ft 6s 5s 29 36 mph 1012.2mb 77f 75f